Time;durP1;ratioP1;P1;durP2;ratioP2;P2;SDS_P1;SDS_P2;PMS_P1;PMS_P2;Temp;Humidity;BMP_temperature;BMP_pressure;BME280_temperature;BME280_humidity;BME280_pressure;Samples;Min_cycle;Max_cycle;Signal;HPM_P1;HPM_P2
2023/05/22 00:00:34;;;;;;;;;16.50;15.00;;;;;17.58;57.94;100892.84;5074834;28;45621;-79
2023/05/22 00:03:02;;;;;;;;;18.00;14.25;;;;;17.59;57.37;100886.59;5073230;28;45600;-78
2023/05/22 00:08:49;;;;;;;;;16.00;12.50;;;;;17.54;57.76;100891.44;5074222;28;45585;-78
2023/05/22 00:11:14;;;;;;;;;14.50;13.25;;;;;17.53;57.53;100892.44;5074261;28;46021;-76
2023/05/22 00:13:41;;;;;;;;;16.75;14.25;;;;;17.40;58.06;100883.16;5039430;28;45931;-77
2023/05/22 00:16:06;;;;;;;;;17.00;15.00;;;;;17.42;57.78;100881.19;5074492;28;45615;-74
2023/05/22 00:18:32;;;;;;;;;14.50;13.00;;;;;17.43;57.31;100885.53;5074356;28;47345;-77
2023/05/22 00:20:57;;;;;;;;;16.25;14.25;;;;;17.43;57.82;100894.31;5074053;28;46352;-78
2023/05/22 00:23:23;;;;;;;;;16.25;15.50;;;;;17.36;57.66;100881.78;5073991;28;45778;-78
2023/05/22 00:25:49;;;;;;;;;16.75;12.25;;;;;17.39;58.07;100887.59;5074639;28;45590;-77
2023/05/22 00:28:14;;;;;;;;;13.25;12.25;;;;;17.30;57.61;100872.59;5073970;28;47147;-77
2023/05/22 00:30:40;;;;;;;;;15.75;14.75;;;;;17.23;57.97;100868.84;5055844;28;46378;-78
2023/05/22 00:33:05;;;;;;;;;15.00;12.00;;;;;17.33;57.69;100898.78;5074171;28;45645;-77
2023/05/22 00:38:52;;;;;;;;;17.25;15.00;;;;;17.30;57.82;100890.28;5074001;28;46145;-76
2023/05/22 00:41:18;;;;;;;;;14.75;13.75;;;;;17.26;57.70;100886.28;5074010;28;46183;-77
2023/05/22 00:43:44;;;;;;;;;14.50;12.25;;;;;17.30;57.50;100888.47;5073752;28;45761;-77
2023/05/22 00:46:11;;;;;;;;;17.00;15.50;;;;;17.28;57.79;100895.72;5074418;28;45752;-75
2023/05/22 00:48:37;;;;;;;;;17.75;16.25;;;;;17.21;57.57;100884.06;5055736;28;46584;-77
2023/05/22 00:54:24;;;;;;;;;15.00;14.25;;;;;17.20;57.91;100879.75;5073732;28;45498;-76
2023/05/22 00:56:50;;;;;;;;;19.00;15.00;;;;;17.23;57.92;100889.19;5074054;28;45642;-76
2023/05/22 00:59:16;;;;;;;;;15.00;14.00;;;;;17.13;57.71;100870.69;5073552;28;46542;-77
2023/05/22 01:01:42;;;;;;;;;12.75;12.75;;;;;17.20;57.90;100882.41;5073587;28;46225;-76
2023/05/22 01:04:10;;;;;;;;;14.00;13.00;;;;;17.16;57.88;100881.88;5073204;28;45721;-77
2023/05/22 01:06:35;;;;;;;;;11.50;10.00;;;;;17.17;57.68;100875.56;5073775;28;45949;-78
2023/05/22 01:09:02;;;;;;;;;13.75;12.50;;;;;17.11;58.15;100870.03;5073390;28;46418;-77
2023/05/22 01:11:40;;;;;;;;;12.50;12.50;;;;;17.12;58.02;100869.03;5073806;28;46498;-77
2023/05/22 01:14:26;;;;;;;;;14.00;13.00;;;;;17.08;57.71;100870.31;5072653;28;45710;-77
2023/05/22 01:17:22;;;;;;;;;15.75;14.00;;;;;17.05;58.18;100878.53;5073830;28;45728;-75
2023/05/22 01:20:09;;;;;;;;;11.25;11.25;;;;;17.06;57.85;100874.91;5073024;28;46697;-75
2023/05/22 01:22:49;;;;;;;;;14.25;12.00;;;;;17.05;57.80;100878.53;5073640;28;45997;-77
2023/05/22 01:25:25;;;;;;;;;13.75;12.00;;;;;17.03;57.60;100873.38;5073347;28;45524;-76
2023/05/22 01:28:08;;;;;;;;;15.00;12.75;;;;;16.98;58.06;100880.94;5073390;28;45450;-75
2023/05/22 01:30:48;;;;;;;;;13.00;11.75;;;;;16.95;58.05;100883.03;5072984;28;47573;-77
2023/05/22 01:33:16;;;;;;;;;12.75;12.25;;;;;16.91;57.94;100869.22;5054590;28;48128;-76
2023/05/22 01:35:48;;;;;;;;;11.50;10.25;;;;;16.90;58.13;100869.38;5073329;28;45693;-77
2023/05/22 01:38:15;;;;;;;;;12.00;11.75;;;;;16.87;58.20;100874.97;5073387;28;45724;-77
2023/05/22 01:40:42;;;;;;;;;10.75;9.00;;;;;16.80;58.20;100874.69;5073085;28;45697;-75
2023/05/22 01:43:07;;;;;;;;;14.50;14.00;;;;;16.77;58.02;100875.81;5054662;28;47134;-77
2023/05/22 01:45:33;;;;;;;;;15.25;14.00;;;;;16.72;58.24;100859.53;5073435;28;45660;-77
2023/05/22 01:47:59;;;;;;;;;15.25;12.75;;;;;16.76;57.71;100870.66;5073217;28;45918;-77
2023/05/22 01:50:25;;;;;;;;;14.00;14.00;;;;;16.71;57.76;100868.44;5072916;28;47753;-77
2023/05/22 01:52:59;;;;;;;;;14.00;14.00;;;;;16.72;57.70;100871.94;5072726;28;46399;-76
2023/05/22 01:55:34;;;;;;;;;12.25;11.00;;;;;16.66;57.83;100868.03;5073084;28;45580;-77
2023/05/22 01:58:18;;;;;;;;;15.75;12.25;;;;;16.67;58.06;100872.38;5073097;28;45567;-76
2023/05/22 02:00:45;;;;;;;;;13.50;13.50;;;;;16.65;57.92;100871.66;5054997;28;46497;-77
2023/05/22 02:03:16;;;;;;;;;15.25;14.00;;;;;16.61;57.65;100858.88;5073105;28;46783;-77
2023/05/22 02:05:44;;;;;;;;;15.75;15.25;;;;;16.61;58.12;100870.28;5072765;28;45653;-76
2023/05/22 02:08:12;;;;;;;;;12.75;10.75;;;;;16.54;57.91;100861.19;5072790;28;45516;-77
2023/05/22 02:10:38;;;;;;;;;13.00;12.50;;;;;16.60;57.95;100868.59;5072854;28;46741;-75
2023/05/22 02:13:03;;;;;;;;;12.50;11.75;;;;;16.58;57.72;100872.31;5072596;28;45903;-75
2023/05/22 02:15:29;;;;;;;;;13.50;12.50;;;;;16.60;57.80;100871.25;5072657;28;45577;-76
2023/05/22 02:17:58;;;;;;;;;14.00;11.75;;;;;16.43;57.91;100848.13;5073045;28;45743;-76
2023/05/22 02:20:23;;;;;;;;;17.50;14.00;;;;;16.50;57.71;100872.22;5072797;28;46959;-76
2023/05/22 02:22:48;;;;;;;;;15.75;13.00;;;;;16.52;57.72;100880.84;5071449;28;46365;-76
2023/05/22 02:25:15;;;;;;;;;12.25;11.75;;;;;16.50;57.80;100872.22;5073302;28;45668;-78
2023/05/22 02:27:45;;;;;;;;;12.00;12.00;;;;;16.45;57.83;100877.09;5075156;28;45832;-77
2023/05/22 02:30:12;;;;;;;;;16.00;13.75;;;;;16.42;58.39;100870.25;5057875;28;46642;-77
2023/05/22 02:32:38;;;;;;;;;15.00;13.50;;;;;16.40;58.06;100866.94;5075568;28;47011;-77
2023/05/22 02:35:04;;;;;;;;;17.25;14.75;;;;;16.35;58.44;100875.28;5075840;28;45820;-76
2023/05/22 02:37:30;;;;;;;;;12.75;11.00;;;;;16.32;58.08;100872.06;5076070;28;45639;-77
2023/05/22 02:39:56;;;;;;;;;12.00;12.00;;;;;16.28;58.10;100874.16;5075953;28;45509;-77
2023/05/22 02:42:23;;;;;;;;;14.00;13.00;;;;;16.21;58.31;100859.81;5075618;28;47035;-77
2023/05/22 02:44:48;;;;;;;;;14.00;13.25;;;;;16.22;58.43;100874.72;5057417;28;46469;-77
2023/05/22 02:47:14;;;;;;;;;12.75;12.00;;;;;16.20;58.45;100860.78;5075962;28;45735;-76
2023/05/22 02:49:39;;;;;;;;;15.50;13.00;;;;;16.13;58.41;100859.69;5075791;28;46464;-78
2023/05/22 02:55:26;;;;;;;;;15.00;13.00;;;;;16.10;58.36;100848.53;5075989;28;45496;-76
2023/05/22 02:57:51;;;;;;;;;14.25;12.00;;;;;16.13;58.47;100858.84;5076065;28;45463;-76
2023/05/22 03:00:17;;;;;;;;;15.75;13.50;;;;;16.15;58.71;100865.66;5075463;28;46388;-75
2023/05/22 03:02:43;;;;;;;;;13.00;13.00;;;;;16.10;58.35;100872.34;5075165;28;45813;-77
2023/05/22 03:05:09;;;;;;;;;15.75;13.75;;;;;16.07;58.48;100864.69;5075505;28;45597;-77
2023/05/22 03:10:58;;;;;;;;;16.75;14.50;;;;;16.01;58.53;100866.06;5075227;28;46035;-77
2023/05/22 03:13:24;;;;;;;;;11.50;11.00;;;;;16.00;58.64;100872.34;5075001;28;46290;-76
2023/05/22 03:15:52;;;;;;;;;14.25;12.75;;;;;15.97;58.59;100879.72;5075436;28;45746;-78
2023/05/22 03:18:17;;;;;;;;;13.75;13.00;;;;;15.88;58.73;100868.13;5075421;28;45891;-76
2023/05/22 03:20:44;;;;;;;;;13.00;12.00;;;;;15.80;58.72;100860.91;5075078;28;47309;-77
2023/05/22 03:23:12;;;;;;;;;13.25;12.00;;;;;15.72;58.94;100860.75;5075272;28;46160;-77
2023/05/22 03:25:37;;;;;;;;;15.00;13.00;;;;;15.78;59.13;100877.84;5075530;28;45500;-77
2023/05/22 03:28:03;;;;;;;;;13.50;11.75;;;;;15.74;58.97;100879.09;5057190;28;45662;-76
2023/05/22 03:30:28;;;;;;;;;16.50;13.75;;;;;15.70;59.09;100864.50;5074976;28;46337;-77
2023/05/22 03:32:54;;;;;;;;;15.25;13.00;;;;;15.59;59.33;100846.13;5074776;28;47103;-77
2023/05/22 03:35:19;;;;;;;;;14.25;13.00;;;;;15.65;59.10;100864.91;5074253;28;45711;-77
2023/05/22 03:41:07;;;;;;;;;16.00;12.00;;;;;15.54;59.06;100854.47;5075931;28;46018;-77
2023/05/22 03:43:33;;;;;;;;;15.00;13.00;;;;;15.56;59.42;100852.50;5075005;28;46108;-77
2023/05/22 03:45:58;;;;;;;;;16.25;14.00;;;;;15.51;59.63;100857.31;5074959;28;45600;-77
2023/05/22 03:48:24;;;;;;;;;13.50;13.00;;;;;15.44;59.50;100846.44;5074717;28;45791;-77
2023/05/22 03:50:49;;;;;;;;;13.25;13.25;;;;;15.51;59.82;100855.53;5074645;28;46841;-77
2023/05/22 03:53:15;;;;;;;;;14.75;13.75;;;;;15.45;59.78;100845.47;5073592;28;45732;-76
2023/05/22 03:55:40;;;;;;;;;12.50;11.50;;;;;15.49;59.86;100856.63;5074510;28;45766;-77
2023/05/22 03:58:06;;;;;;;;;14.00;13.00;;;;;15.47;59.76;100869.13;5056581;28;45781;-76
2023/05/22 04:00:32;;;;;;;;;15.75;14.25;;;;;15.43;59.95;100865.09;5074646;28;47370;-75
2023/05/22 04:02:57;;;;;;;;;13.75;13.75;;;;;15.44;59.63;100875.50;5074193;28;46052;-77
2023/05/22 04:05:23;;;;;;;;;12.75;12.00;;;;;15.44;59.79;100883.41;5074475;28;45679;-76
2023/05/22 04:11:11;;;;;;;;;12.00;11.50;;;;;15.43;59.66;100891.50;5074361;28;46022;-76
2023/05/22 04:13:36;;;;;;;;;16.75;12.75;;;;;15.43;60.20;100894.97;5073917;28;45980;-76
2023/05/22 04:16:03;;;;;;;;;11.00;10.25;;;;;15.44;59.87;100890.50;5074327;28;45725;-76
2023/05/22 04:18:28;;;;;;;;;13.00;12.00;;;;;15.43;59.90;100891.50;5074605;28;45509;-77
2023/05/22 04:20:53;;;;;;;;;13.00;11.75;;;;;15.38;60.17;100875.22;5074364;28;45604;-77
2023/05/22 04:26:40;;;;;;;;;17.25;13.00;;;;;15.45;60.15;100881.63;5074224;28;45568;-75
2023/05/22 04:29:09;;;;;;;;;16.25;13.00;;;;;15.44;60.15;100885.22;5074436;28;45577;-77
2023/05/22 04:31:35;;;;;;;;;13.00;13.00;;;;;15.38;59.97;100867.28;5073944;28;46689;-76
2023/05/22 04:34:00;;;;;;;;;13.75;12.75;;;;;15.43;59.96;100879.13;5073815;28;46261;-76
2023/05/22 04:36:25;;;;;;;;;12.50;12.00;;;;;15.46;60.14;100888.56;5073918;28;45533;-76
2023/05/22 04:38:52;;;;;;;;;14.50;13.50;;;;;15.42;60.19;100887.16;5074301;28;45676;-77
2023/05/22 04:41:18;;;;;;;;;15.50;13.50;;;;;15.46;60.27;100893.84;5073878;28;47662;-76
2023/05/22 04:43:43;;;;;;;;;17.00;14.50;;;;;15.46;60.63;100896.50;5073759;28;46006;-76
2023/05/22 04:46:09;;;;;;;;;13.25;12.50;;;;;15.44;60.36;100896.63;5074156;28;45588;-75
2023/05/22 04:48:35;;;;;;;;;14.00;14.00;;;;;15.45;60.08;100900.94;5073404;28;45625;-78
2023/05/22 04:51:01;;;;;;;;;14.00;13.25;;;;;15.46;60.32;100904.41;5074082;28;45647;-76
2023/05/22 04:56:48;;;;;;;;;15.75;14.00;;;;;15.46;60.89;100915.81;5073811;28;45826;-76
2023/05/22 04:59:15;;;;;;;;;14.75;13.25;;;;;15.42;60.53;100906.50;5074168;28;45658;-76
2023/05/22 05:01:44;;;;;;;;;15.75;14.75;;;;;15.47;60.45;100911.38;5073475;28;45797;-75
2023/05/22 05:04:09;;;;;;;;;17.50;14.00;;;;;15.48;60.51;100910.41;5073394;28;46121;-77
2023/05/22 05:06:36;;;;;;;;;15.50;13.00;;;;;15.49;60.67;100912.09;5055358;28;45631;-75
2023/05/22 05:12:23;;;;;;;;;15.75;13.75;;;;;15.52;60.16;100922.41;5073128;28;45618;-76
2023/05/22 05:14:48;;;;;;;;;16.00;14.25;;;;;15.54;60.52;100909.91;5073632;28;45556;-76
2023/05/22 05:17:14;;;;;;;;;13.00;12.00;;;;;15.53;60.61;100914.34;5073731;28;45479;-76
2023/05/22 05:19:39;;;;;;;;;17.00;15.25;;;;;15.54;60.64;100917.84;5073495;28;45840;-77
2023/05/22 05:22:05;;;;;;;;;11.50;10.75;;;;;15.53;60.56;100916.16;5073206;28;46499;-77
2023/05/22 05:24:30;;;;;;;;;17.25;15.00;;;;;15.49;60.41;100904.97;5073142;28;46562;-77
2023/05/22 05:26:55;;;;;;;;;16.50;15.25;;;;;15.48;60.54;100898.03;5073301;28;45451;-76
2023/05/22 05:29:21;;;;;;;;;17.25;16.00;;;;;15.51;60.79;100907.50;5073230;28;45528;-77
2023/05/22 05:31:46;;;;;;;;;17.50;14.00;;;;;15.51;60.65;100897.81;5073215;28;46345;-78
2023/05/22 05:34:12;;;;;;;;;15.50;14.00;;;;;15.50;60.92;100903.16;5072939;28;46319;-77
2023/05/22 05:36:40;;;;;;;;;16.75;14.25;;;;;15.43;60.79;100899.41;5073029;28;45485;-77
2023/05/22 05:42:27;;;;;;;;;16.50;15.00;;;;;15.44;61.14;100893.13;5072879;28;45983;-78
2023/05/22 05:44:52;;;;;;;;;17.75;14.75;;;;;15.47;61.19;100911.38;5072838;28;46111;-75
2023/05/22 05:47:18;;;;;;;;;13.00;10.00;;;;;15.46;61.06;100907.91;5073129;28;45838;-77
2023/05/22 05:49:43;;;;;;;;;19.00;16.00;;;;;15.38;61.04;100896.34;5072727;28;45573;-77
2023/05/22 05:52:08;;;;;;;;;15.50;14.00;;;;;15.48;61.00;100902.50;5071662;28;47867;-74
2023/05/22 05:54:34;;;;;;;;;18.00;15.00;;;;;15.40;61.09;100887.28;5072237;28;47075;-74
2023/05/22 05:56:59;;;;;;;;;16.50;14.25;;;;;15.45;61.19;100905.38;5072789;28;45699;-75
2023/05/22 05:59:24;;;;;;;;;15.50;15.50;;;;;15.47;61.09;100892.88;5072805;28;45721;-75
2023/05/22 06:01:50;;;;;;;;;20.00;14.25;;;;;15.45;61.31;100900.94;5074853;28;47335;-75
2023/05/22 06:04:15;;;;;;;;;17.75;14.00;;;;;15.44;61.02;100893.97;5075933;28;45820;-73
2023/05/22 06:06:41;;;;;;;;;15.50;14.25;;;;;15.40;61.26;100889.09;5076410;28;45537;-74
2023/05/22 06:12:28;;;;;;;;;13.25;13.25;;;;;15.47;61.38;100911.38;5076151;28;45723;-74
2023/05/22 06:14:53;;;;;;;;;16.50;15.00;;;;;15.44;61.44;100899.25;5076204;28;46046;-73
2023/05/22 06:17:19;;;;;;;;;14.25;13.25;;;;;15.50;61.20;100913.72;5076424;28;45606;-74
2023/05/22 06:19:45;;;;;;;;;19.00;17.25;;;;;15.49;61.57;100904.97;5077368;28;45764;-73
2023/05/22 06:22:10;;;;;;;;;18.25;15.00;;;;;15.51;61.25;100897.81;5076182;28;47878;-73
2023/05/22 06:27:57;;;;;;;;;17.50;14.25;;;;;15.51;61.31;100911.00;5076279;28;45812;-72
2023/05/22 06:30:22;;;;;;;;;13.50;12.00;;;;;15.53;61.64;100918.81;5076895;28;45553;-74
2023/05/22 06:32:48;;;;;;;;;16.50;15.25;;;;;15.48;61.53;100900.69;5076395;28;46189;-74
2023/05/22 06:35:13;;;;;;;;;15.00;13.00;;;;;15.56;61.07;100907.94;5076187;28;47082;-74
2023/05/22 06:37:41;;;;;;;;;19.75;16.00;;;;;15.54;61.27;100904.63;5076380;28;45635;-75
2023/05/22 06:43:27;;;;;;;;;18.50;14.75;;;;;15.57;61.23;100911.44;5075730;28;46024;-72
2023/05/22 06:45:53;;;;;;;;;17.25;15.50;;;;;15.63;61.41;100924.94;5076361;28;46181;-73
2023/05/22 06:48:18;;;;;;;;;17.00;16.00;;;;;15.62;61.58;100919.78;5075968;28;45736;-73
2023/05/22 06:50:44;;;;;;;;;21.00;15.25;;;;;15.63;61.47;100916.19;5076466;28;45575;-74
2023/05/22 06:53:10;;;;;;;;;20.00;15.25;;;;;15.67;61.50;100915.78;5075610;28;45730;-74
2023/05/22 06:55:35;;;;;;;;;16.50;15.50;;;;;15.71;61.69;100916.38;5075871;28;46598;-73
2023/05/22 06:58:01;;;;;;;;;15.50;14.00;;;;;15.79;61.18;100929.72;5075926;28;45668;-73
2023/05/22 07:00:26;;;;;;;;;17.50;15.00;;;;;15.80;61.26;100926.13;5075841;28;45882;-74
2023/05/22 07:02:52;;;;;;;;;17.25;15.00;;;;;15.81;61.15;100931.28;5075561;28;46161;-75
2023/05/22 07:05:17;;;;;;;;;17.00;15.75;;;;;15.85;61.49;100931.84;5075973;28;46194;-73
2023/05/22 07:07:43;;;;;;;;;15.25;15.25;;;;;15.89;61.38;100939.34;5074844;28;45648;-74
2023/05/22 07:13:30;;;;;;;;;19.75;17.50;;;;;16.00;60.96;100934.91;5075082;28;46154;-74
2023/05/22 07:15:56;;;;;;;;;16.00;13.00;;;;;16.02;61.24;100935.63;5075096;28;46676;-74
2023/05/22 07:18:21;;;;;;;;;15.50;15.00;;;;;16.04;60.95;100931.03;5075435;28;45682;-73
2023/05/22 07:20:47;;;;;;;;;17.00;14.50;;;;;15.99;60.94;100928.78;5075322;28;45787;-74
2023/05/22 07:23:12;;;;;;;;;17.50;16.00;;;;;16.09;60.87;100942.03;5074928;28;46373;-74
2023/05/22 07:25:38;;;;;;;;;19.50;17.50;;;;;16.13;61.37;100943.44;5075336;28;46183;-73
2023/05/22 07:28:07;;;;;;;;;19.75;17.00;;;;;16.15;60.99;100934.41;5074852;28;45616;-74
2023/05/22 07:30:37;;;;;;;;;20.00;18.00;;;;;16.16;61.05;100945.81;5075240;28;45526;-74
2023/05/22 07:33:04;;;;;;;;;19.50;17.00;;;;;16.22;61.21;100950.56;5074703;28;46793;-74
2023/05/22 07:35:29;;;;;;;;;16.50;12.75;;;;;16.22;61.01;100937.34;5075053;28;46074;-73
2023/05/22 07:37:55;;;;;;;;;16.75;16.75;;;;;16.23;60.94;100944.28;5074753;28;45527;-72
2023/05/22 07:43:42;;;;;;;;;17.75;15.25;;;;;16.41;60.54;100952.41;5074579;28;46102;-74
2023/05/22 07:46:08;;;;;;;;;18.25;18.00;;;;;16.40;60.60;100951.56;5074771;28;46681;-74
2023/05/22 07:48:33;;;;;;;;;17.50;15.50;;;;;16.50;60.63;100956.84;5074479;28;45575;-74
2023/05/22 07:50:59;;;;;;;;;19.75;15.00;;;;;16.49;60.85;100960.47;5075207;28;45687;-74
2023/05/22 07:59:29;;;;;;;;;19.75;18.00;;;;;16.67;60.24;100964.13;5074754;28;45744;-74
2023/05/22 08:01:55;;;;;;;;;15.75;14.00;;;;;16.67;60.71;100957.03;5074520;28;46189;-74
2023/05/22 08:04:20;;;;;;;;;16.50;16.50;;;;;16.73;60.25;100964.38;5074661;28;46366;-74
2023/05/22 08:06:45;;;;;;;;;19.75;15.25;;;;;16.74;60.36;100968.72;5074680;28;45585;-74
2023/05/22 08:09:11;;;;;;;;;18.75;17.00;;;;;16.75;60.06;100958.97;5074531;28;45656;-73
2023/05/22 08:11:38;;;;;;;;;15.50;14.75;;;;;16.79;60.50;100958.53;5074476;28;45918;-74
2023/05/22 08:14:04;;;;;;;;;10.00;10.00;;;;;16.86;60.06;100965.91;5074029;28;46526;-74
2023/05/22 08:16:30;;;;;;;;;18.00;16.75;;;;;16.87;60.04;100973.72;5074682;28;45640;-74
2023/05/22 08:18:56;;;;;;;;;14.75;14.50;;;;;16.97;59.95;100965.78;5055759;28;45877;-73
2023/05/22 08:21:21;;;;;;;;;20.50;17.50;;;;;17.00;60.16;100962.84;5074450;28;45997;-75
2023/05/22 08:23:47;;;;;;;;;25.25;18.00;;;;;17.06;60.03;100971.03;5073002;28;47340;-74
2023/05/22 08:26:13;;;;;;;;;16.50;15.00;;;;;17.08;60.26;100969.09;5073994;28;45936;-75
2023/05/22 08:28:42;;;;;;;;;15.75;15.25;;;;;17.10;60.10;100958.38;5055774;28;45734;-74
2023/05/22 08:31:08;;;;;;;;;17.50;16.75;;;;;17.17;60.06;100970.88;5074191;28;45815;-74
2023/05/22 08:33:34;;;;;;;;;18.25;17.00;;;;;17.24;59.95;100965.03;5073614;28;46501;-75
2023/05/22 08:35:59;;;;;;;;;17.00;15.75;;;;;17.29;59.62;100974.22;5074481;28;45555;-73
2023/05/22 08:38:24;;;;;;;;;20.00;17.75;;;;;17.35;59.73;100968.34;5074203;28;45907;-75
2023/05/22 08:44:12;;;;;;;;;20.00;17.25;;;;;17.39;59.42;100961.78;5073921;28;45940;-75
2023/05/22 08:46:42;;;;;;;;;20.50;19.50;;;;;17.47;59.34;100980.44;5074065;28;46092;-74
2023/05/22 08:49:08;;;;;;;;;17.75;16.50;;;;;17.53;59.53;100977.22;5074392;28;45577;-74
2023/05/22 08:51:37;;;;;;;;;14.75;13.25;;;;;17.56;59.11;100984.03;5055553;28;45885;-72
2023/05/22 08:54:07;;;;;;;;;18.00;16.75;;;;;17.60;59.27;100974.84;5073910;28;45605;-75
2023/05/22 08:56:34;;;;;;;;;17.25;16.50;;;;;17.65;58.96;100985.03;5074018;28;45546;-74
2023/05/22 08:59:02;;;;;;;;;21.25;18.00;;;;;17.68;59.27;100990.84;5073824;28;45579;-72
2023/05/22 09:01:29;;;;;;;;;17.25;17.00;;;;;17.71;59.20;100979.13;5073811;28;45835;-74
2023/05/22 09:04:00;;;;;;;;;18.75;16.25;;;;;17.77;59.10;100989.97;5055248;28;46005;-74
2023/05/22 09:06:27;;;;;;;;;14.25;14.00;;;;;17.79;58.78;100992.50;5073946;28;46136;-74
2023/05/22 09:08:54;;;;;;;;;16.50;16.50;;;;;17.82;59.02;100987.72;5073828;28;45510;-73
2023/05/22 09:14:42;;;;;;;;;18.75;18.00;;;;;17.87;58.69;100981.97;5073374;28;45650;-73
2023/05/22 09:17:13;;;;;;;;;20.00;17.50;;;;;17.88;58.78;100971.22;5072909;28;48283;-73
2023/05/22 09:19:42;;;;;;;;;17.50;17.25;;;;;17.96;58.85;100983.75;5073293;28;45811;-73
2023/05/22 09:22:07;;;;;;;;;20.50;17.50;;;;;18.02;58.66;100991.13;5073610;28;45533;-73
2023/05/22 09:24:44;;;;;;;;;20.75;17.75;;;;;18.05;58.49;100988.16;5073372;28;45569;-74
2023/05/22 09:27:10;;;;;;;;;19.00;17.00;;;;;18.13;58.74;100993.59;5073202;28;46005;-74
2023/05/22 09:29:50;;;;;;;;;17.50;17.00;;;;;18.18;58.57;100991.31;5073323;28;45570;-74
2023/05/22 09:32:17;;;;;;;;;20.50;18.00;;;;;18.22;58.52;100998.00;5073083;28;45787;-72
2023/05/22 09:34:43;;;;;;;;;18.25;16.75;;;;;18.30;58.66;100999.91;5074171;28;47344;-74
2023/05/22 09:37:10;;;;;;;;;21.75;20.00;;;;;18.34;58.35;101002.13;5076478;28;47170;-74
2023/05/22 09:39:41;;;;;;;;;22.50;20.25;;;;;18.41;58.59;100991.72;5076859;28;45715;-74
2023/05/22 09:42:09;;;;;;;;;21.00;19.00;;;;;18.48;58.53;100991.97;5076822;28;45600;-73
2023/05/22 09:44:34;;;;;;;;;18.25;16.50;;;;;18.52;58.48;100986.19;5076415;28;46658;-74
2023/05/22 09:47:00;;;;;;;;;23.50;19.25;;;;;18.57;58.60;100989.25;5076764;28;45966;-73
2023/05/22 09:49:25;;;;;;;;;24.00;22.50;;;;;18.59;58.19;100984.63;5076442;28;45616;-74
2023/05/22 09:51:53;;;;;;;;;22.00;21.25;;;;;18.68;58.23;100988.19;5076813;28;45425;-75
2023/05/22 09:54:20;;;;;;;;;18.00;17.50;;;;;18.75;58.20;100986.59;5076270;28;46302;-74
2023/05/22 10:00:11;;;;;;;;;17.00;16.00;;;;;18.84;57.98;100973.25;5076519;28;45563;-73
2023/05/22 10:02:37;;;;;;;;;18.25;16.75;;;;;18.94;57.96;100989.13;5076186;28;45832;-73
2023/05/22 10:05:07;;;;;;;;;18.50;16.50;;;;;18.94;57.90;100982.97;5058200;28;46889;-73
2023/05/22 10:07:42;;;;;;;;;20.50;18.50;;;;;19.05;57.75;100991.53;5076095;28;46356;-74
2023/05/22 10:10:11;;;;;;;;;23.00;21.25;;;;;19.09;58.08;100976.94;5076313;28;45790;-73
2023/05/22 10:12:43;;;;;;;;;22.00;18.25;;;;;19.15;57.64;100986.97;5076170;28;45601;-74
2023/05/22 10:15:10;;;;;;;;;21.25;20.75;;;;;19.20;57.57;100973.19;5076070;28;47488;-74
2023/05/22 10:17:38;;;;;;;;;20.00;18.50;;;;;19.24;57.63;100972.72;5075877;28;46281;-74
2023/05/22 10:20:06;;;;;;;;;19.25;18.25;;;;;19.28;57.84;100979.38;5076282;28;45454;-73
2023/05/22 10:22:35;;;;;;;;;23.00;20.25;;;;;19.27;57.20;100963.63;5075871;28;45577;-74
2023/05/22 10:25:02;;;;;;;;;24.25;22.00;;;;;19.39;57.09;100969.50;5075848;28;47381;-74
2023/05/22 10:27:27;;;;;;;;;22.50;21.00;;;;;19.44;57.30;100975.16;5076243;28;46239;-74
2023/05/22 10:30:12;;;;;;;;;19.25;18.25;;;;;19.48;57.43;100979.22;5076340;28;45573;-73
2023/05/22 10:32:55;;;;;;;;;20.00;18.00;;;;;19.53;57.15;100966.28;5076161;28;45658;-73
2023/05/22 10:35:43;;;;;;;;;22.25;21.00;;;;;19.53;56.95;100967.13;5075847;28;47301;-75
2023/05/22 10:38:46;;;;;;;;;22.00;21.00;;;;;19.61;57.10;100969.81;5061355;28;46155;-73
2023/05/22 10:41:13;;;;;;;;;23.75;22.00;;;;;19.61;57.13;100963.66;5057353;28;45672;-73
2023/05/22 10:43:42;;;;;;;;;21.75;21.00;;;;;19.68;56.93;100968.19;5076116;28;45816;-74
2023/05/22 10:46:08;;;;;;;;;23.75;21.25;;;;;19.74;56.82;100956.09;5075294;28;45594;-73
2023/05/22 10:48:46;;;;;;;;;21.00;19.00;;;;;19.78;56.86;100959.25;5075590;28;47054;-74
2023/05/22 10:51:13;;;;;;;;;23.25;20.00;;;;;19.82;56.77;100966.75;5075693;28;45747;-73
2023/05/22 10:53:42;;;;;;;;;22.50;22.50;;;;;19.86;56.88;100954.81;5075986;28;45671;-75
2023/05/22 10:56:15;;;;;;;;;24.75;22.75;;;;;19.88;56.41;100954.66;5075332;28;46652;-74
2023/05/22 10:58:55;;;;;;;;;27.25;24.25;;;;;19.87;56.46;100937.00;5057262;28;47151;-75
2023/05/22 11:01:21;;;;;;;;;24.00;22.00;;;;;19.95;56.57;100948.53;5075169;28;46023;-75
2023/05/22 11:04:00;;;;;;;;;27.00;25.00;;;;;19.96;56.44;100942.22;5075346;28;45602;-74
2023/05/22 11:06:40;;;;;;;;;29.50;27.25;;;;;20.03;56.26;100940.56;5075180;28;46726;-74
2023/05/22 11:09:27;;;;;;;;;25.75;24.25;;;;;20.07;56.52;100941.94;5075071;28;46123;-74
2023/05/22 11:12:24;;;;;;;;;24.00;21.00;;;;;20.13;56.50;100935.94;5075051;28;45808;-73
2023/05/22 11:14:54;;;;;;;;;24.00;22.75;;;;;20.17;56.32;100954.25;5075478;28;45598;-73
2023/05/22 11:17:26;;;;;;;;;26.25;25.25;;;;;20.19;56.17;100938.97;5075141;28;46509;-73
2023/05/22 11:20:05;;;;;;;;;26.00;24.00;;;;;20.26;56.17;100937.28;5074720;28;45879;-74
2023/05/22 11:22:37;;;;;;;;;28.25;26.25;;;;;20.32;56.10;100945.50;5074646;28;45663;-73
2023/05/22 11:25:06;;;;;;;;;29.50;26.25;;;;;20.38;56.11;100931.53;5075316;28;45611;-74
2023/05/22 11:27:31;;;;;;;;;28.25;24.00;;;;;20.46;55.56;100947.50;5074946;28;45538;-73
2023/05/22 11:29:58;;;;;;;;;30.50;29.75;;;;;20.51;55.82;100934.53;5074909;28;46086;-74
2023/05/22 11:32:24;;;;;;;;;26.25;25.50;;;;;20.61;55.85;100944.22;5074657;28;45666;-74
2023/05/22 11:34:50;;;;;;;;;24.25;23.50;;;;;20.67;55.90;100949.72;5075283;28;45577;-72
2023/05/22 11:37:18;;;;;;;;;26.75;24.75;;;;;20.73;55.47;100942.88;5075106;28;45683;-74
2023/05/22 11:40:12;;;;;;;;;24.25;23.50;;;;;20.83;55.59;100936.38;5074879;28;46327;-73
2023/05/22 11:42:37;;;;;;;;;28.25;23.25;;;;;20.91;55.37;100933.69;5072054;28;45563;-74
2023/05/22 11:45:04;;;;;;;;;26.75;23.50;;;;;21.00;55.33;100931.84;5075104;28;45510;-75
2023/05/22 11:47:30;;;;;;;;;24.00;22.75;;;;;21.03;54.59;100931.53;5074790;28;46434;-74
2023/05/22 11:49:56;;;;;;;;;23.75;23.00;;;;;21.11;54.62;100936.00;5074753;28;45971;-74
2023/05/22 11:52:22;;;;;;;;;28.25;25.00;;;;;21.17;54.54;100920.19;5074591;28;45785;-74
2023/05/22 11:54:48;;;;;;;;;29.00;28.00;;;;;21.17;54.44;100920.19;5074890;28;45766;-74
2023/05/22 11:57:14;;;;;;;;;24.50;23.50;;;;;21.33;54.76;100941.50;5056252;28;47624;-73
2023/05/22 11:59:43;;;;;;;;;24.00;23.50;;;;;21.41;54.08;100926.47;5074487;28;47118;-74
2023/05/22 12:02:09;;;;;;;;;25.50;23.75;;;;;21.48;53.37;100930.13;5074407;28;45903;-73
2023/05/22 12:04:36;;;;;;;;;27.25;26.50;;;;;21.52;53.08;100928.78;5056382;28;45633;-74
2023/05/22 12:07:02;;;;;;;;;25.50;23.25;;;;;21.56;53.74;100933.59;5074507;28;45667;-72
2023/05/22 12:09:27;;;;;;;;;24.50;24.25;;;;;21.62;53.45;100926.75;5074634;28;46168;-74
2023/05/22 12:11:59;;;;;;;;;24.00;20.75;;;;;21.70;53.22;100934.72;5073851;28;45605;-73
2023/05/22 12:14:30;;;;;;;;;22.25;20.50;;;;;21.74;53.47;100923.53;5074720;28;45693;-73
2023/05/22 12:17:00;;;;;;;;;26.50;24.50;;;;;21.79;52.87;100917.66;5074207;28;46654;-73
2023/05/22 12:19:26;;;;;;;;;27.25;24.25;;;;;21.83;53.47;100929.66;5074275;27;46082;-74
2023/05/22 12:21:52;;;;;;;;;25.75;24.50;;;;;21.89;53.23;100925.44;5074267;28;45735;-74